Terminal Aerodrome Forecast
Issued by NWS

Home | Current Version | Previous Version | Text Only | Print | Product List | Glossary On
Versions: 1 2 3 4 5 6 7 8 9 10 11 12 13 14 15 16 17 18 19 20 21 22 23 24 25 26 27 28 29 30 31 32 33 34 35 36 37 38 39 40 41 42 43 44 45 46 47 48 49 50
000
FTUS45 KBOU 212331
TAFBJC
TAF
KBJC 212331Z 2200/2224 27012G20KT P6SM SCT080 BKN140
     FM220300 25007KT P6SM SCT080 BKN110
     FM220700 33012KT P6SM VCSH BKN060 BKN100
     FM221400 34012KT P6SM VCSH SCT060 BKN100
     FM221800 33014G22KT P6SM VCSH SCT080 BKN120=

USA.gov is the U.S. government's official web portal to all federal, state and local government web resources and services.